Time;durP1;ratioP1;P1;durP2;ratioP2;P2;SDS_P1;SDS_P2;PMS_P1;PMS_P2;Temp;Humidity;BMP_temperature;BMP_pressure;BME280_temperature;BME280_humidity;BME280_pressure;Samples;Min_cycle;Max_cycle;Signal;HPM_P1;HPM_P2
2023/10/20 00:02:05;;;;;;;0.00;0.00;;;14.90;99.90;;;;;;5091779;28;20255;-60
2023/10/20 00:04:31;;;;;;;0.15;0.15;;;14.90;99.90;;;;;;5090494;28;20183;-60
2023/10/20 00:06:58;;;;;;;0.00;0.00;;;14.80;99.90;;;;;;5090666;28;20640;-59
2023/10/20 00:09:24;;;;;;;0.00;0.00;;;14.80;99.90;;;;;;5090660;28;20223;-59
2023/10/20 00:11:51;;;;;;;0.10;0.10;;;14.80;99.90;;;;;;5091197;28;20180;-59
2023/10/20 00:14:17;;;;;;;0.00;0.00;;;14.70;99.90;;;;;;5091243;28;20788;-59
2023/10/20 00:16:43;;;;;;;0.00;0.00;;;14.80;99.90;;;;;;5091326;28;20237;-59
2023/10/20 00:19:08;;;;;;;0.00;0.00;;;14.70;99.90;;;;;;5089959;28;20271;-60
2023/10/20 00:21:35;;;;;;;0.00;0.00;;;14.70;99.90;;;;;;5091283;28;20211;-60
2023/10/20 00:24:02;;;;;;;0.00;0.00;;;14.70;99.90;;;;;;5091383;28;20177;-60
2023/10/20 00:26:27;;;;;;;0.00;0.00;;;14.80;99.90;;;;;;5091262;28;20180;-60
2023/10/20 00:28:53;;;;;;;0.00;0.00;;;14.80;99.90;;;;;;5091085;28;20686;-60
2023/10/20 00:31:18;;;;;;;0.00;0.00;;;14.80;99.90;;;;;;5090690;28;20176;-60
2023/10/20 00:33:45;;;;;;;0.00;0.00;;;14.80;99.90;;;;;;5089714;28;20226;-60
2023/10/20 00:36:11;;;;;;;0.00;0.00;;;14.80;99.90;;;;;;5091232;28;20184;-58
2023/10/20 00:38:37;;;;;;;0.00;0.00;;;14.80;99.90;;;;;;5090995;28;20180;-59
2023/10/20 00:41:03;;;;;;;0.00;0.00;;;14.80;99.90;;;;;;5091023;28;20257;-60
2023/10/20 00:43:38;;;;;;;0.00;0.00;;;14.80;99.90;;;;;;5090812;28;20179;-60
2023/10/20 00:46:08;;;;;;;0.00;0.00;;;14.90;99.90;;;;;;5091327;28;20182;-60
2023/10/20 00:48:35;;;;;;;0.00;0.00;;;14.90;99.90;;;;;;5091068;28;20260;-60
2023/10/20 00:51:02;;;;;;;0.00;0.00;;;14.90;99.90;;;;;;5090672;28;20172;-60
2023/10/20 00:53:29;;;;;;;0.00;0.00;;;14.90;99.90;;;;;;5090857;28;20175;-60
2023/10/20 00:55:57;;;;;;;0.00;0.00;;;14.90;99.90;;;;;;5090966;28;20177;-60
2023/10/20 00:58:27;;;;;;;0.00;0.00;;;14.80;99.90;;;;;;5090906;28;20214;-60
2023/10/20 01:00:53;;;;;;;0.00;0.00;;;14.90;99.90;;;;;;5090877;28;20180;-59
2023/10/20 01:03:19;;;;;;;0.00;0.00;;;14.90;99.90;;;;;;5090448;28;20255;-60
2023/10/20 01:05:45;;;;;;;0.00;0.00;;;14.90;99.90;;;;;;5090884;28;20250;-60
2023/10/20 01:08:11;;;;;;;0.00;0.00;;;14.90;99.90;;;;;;5090432;28;20184;-59
2023/10/20 01:10:37;;;;;;;0.10;0.10;;;14.90;99.90;;;;;;5090612;28;20215;-59
2023/10/20 01:13:02;;;;;;;0.00;0.00;;;14.90;99.90;;;;;;5090900;28;20544;-59
2023/10/20 01:15:28;;;;;;;0.00;0.00;;;14.90;99.90;;;;;;5090546;28;20188;-60
2023/10/20 01:17:54;;;;;;;0.00;0.00;;;14.80;99.90;;;;;;5092185;28;20655;-60
2023/10/20 01:20:20;;;;;;;0.00;0.00;;;14.80;99.90;;;;;;5094575;28;20176;-61
2023/10/20 01:22:45;;;;;;;0.00;0.00;;;14.80;99.90;;;;;;5094666;28;20189;-60
2023/10/20 01:25:11;;;;;;;0.00;0.00;;;14.80;99.90;;;;;;5094326;28;20527;-59
2023/10/20 01:27:37;;;;;;;0.00;0.00;;;14.80;99.90;;;;;;5094391;28;20941;-59
2023/10/20 01:30:04;;;;;;;0.00;0.00;;;14.80;99.90;;;;;;5094264;28;20215;-59
2023/10/20 01:32:30;;;;;;;0.00;0.00;;;14.80;99.90;;;;;;5093843;28;20222;-59
2023/10/20 01:34:55;;;;;;;0.00;0.00;;;14.80;99.90;;;;;;5094507;28;20259;-60
2023/10/20 01:37:21;;;;;;;0.00;0.00;;;14.80;99.90;;;;;;5094021;28;20532;-59
2023/10/20 01:39:47;;;;;;;0.00;0.00;;;14.80;99.90;;;;;;5094262;28;20176;-59
2023/10/20 01:42:13;;;;;;;0.10;0.10;;;14.70;99.90;;;;;;5094143;28;20544;-59
2023/10/20 01:44:39;;;;;;;0.00;0.00;;;14.80;99.90;;;;;;5093953;28;20176;-59
2023/10/20 01:47:05;;;;;;;0.00;0.00;;;14.80;99.90;;;;;;5089716;28;20704;-59
2023/10/20 01:49:30;;;;;;;0.00;0.00;;;14.80;99.90;;;;;;5093751;28;20216;-61
2023/10/20 01:51:56;;;;;;;0.00;0.00;;;14.80;99.90;;;;;;5094076;28;20208;-60
2023/10/20 01:54:23;;;;;;;0.00;0.00;;;14.80;99.90;;;;;;5093962;28;20225;-60
2023/10/20 01:56:49;;;;;;;0.00;0.00;;;14.80;99.90;;;;;;5093839;28;20639;-60
2023/10/20 01:59:15;;;;;;;0.00;0.00;;;14.80;99.90;;;;;;5093935;28;20322;-60
2023/10/20 02:01:41;;;;;;;0.00;0.00;;;14.80;99.90;;;;;;5094079;28;20210;-60
2023/10/20 02:04:07;;;;;;;0.00;0.00;;;14.80;99.90;;;;;;5094150;28;20180;-60
2023/10/20 02:06:33;;;;;;;0.00;0.00;;;14.80;99.90;;;;;;5093991;28;20276;-59
2023/10/20 02:08:59;;;;;;;0.00;0.00;;;14.80;99.90;;;;;;5093808;28;20208;-59
2023/10/20 02:11:25;;;;;;;0.00;0.00;;;14.80;99.90;;;;;;5093641;28;20229;-60
2023/10/20 02:13:51;;;;;;;0.00;0.00;;;14.80;99.90;;;;;;5094080;28;20168;-60
2023/10/20 02:16:17;;;;;;;0.00;0.00;;;14.80;99.90;;;;;;5093782;28;20180;-59
2023/10/20 02:18:42;;;;;;;0.00;0.00;;;14.80;99.90;;;;;;5093520;28;20278;-60
2023/10/20 02:21:09;;;;;;;0.00;0.00;;;14.80;99.90;;;;;;5092417;28;20700;-59
2023/10/20 02:23:38;;;;;;;0.00;0.00;;;14.80;99.90;;;;;;5093273;28;20180;-59
2023/10/20 02:26:05;;;;;;;0.00;0.00;;;14.70;99.90;;;;;;5093686;28;20168;-59
2023/10/20 02:28:32;;;;;;;0.00;0.00;;;14.70;99.90;;;;;;5093083;28;20210;-59
2023/10/20 02:31:00;;;;;;;0.00;0.00;;;14.70;99.90;;;;;;5092541;28;20274;-59
2023/10/20 02:33:26;;;;;;;0.00;0.00;;;14.70;99.90;;;;;;5091659;28;20220;-60
2023/10/20 02:35:54;;;;;;;0.00;0.00;;;14.70;99.90;;;;;;5093397;28;20172;-59
2023/10/20 02:38:20;;;;;;;0.00;0.00;;;14.70;99.90;;;;;;5092039;28;20234;-60
2023/10/20 02:40:50;;;;;;;0.00;0.00;;;14.70;99.90;;;;;;5093160;28;20192;-60
2023/10/20 02:43:15;;;;;;;0.00;0.00;;;14.70;99.90;;;;;;5093202;28;20233;-60
2023/10/20 02:45:54;;;;;;;0.00;0.00;;;14.60;99.90;;;;;;5092617;28;20180;-60
2023/10/20 02:48:23;;;;;;;0.00;0.00;;;14.60;99.90;;;;;;5092829;28;20191;-60
2023/10/20 02:50:49;;;;;;;0.00;0.00;;;14.60;99.90;;;;;;5092757;28;20249;-60
2023/10/20 02:53:15;;;;;;;0.00;0.00;;;14.60;99.90;;;;;;5093171;28;20188;-60
2023/10/20 02:55:44;;;;;;;0.00;0.00;;;14.60;99.90;;;;;;5092451;28;20650;-60
2023/10/20 02:58:11;;;;;;;0.05;0.05;;;14.50;99.90;;;;;;5091881;28;20176;-60
2023/10/20 03:00:44;;;;;;;0.00;0.00;;;14.50;99.90;;;;;;5092582;28;20804;-60
2023/10/20 03:03:13;;;;;;;0.10;0.10;;;14.50;99.90;;;;;;5092827;28;20704;-60
2023/10/20 03:05:43;;;;;;;0.00;0.00;;;14.50;99.90;;;;;;5092396;28;20183;-61
2023/10/20 03:08:09;;;;;;;0.00;0.00;;;14.50;99.90;;;;;;5092439;28;20177;-61
2023/10/20 03:10:35;;;;;;;0.00;0.00;;;14.40;99.90;;;;;;5092629;28;20249;-60
2023/10/20 03:13:01;;;;;;;0.00;0.00;;;14.40;99.90;;;;;;5092580;28;20172;-60
2023/10/20 03:15:27;;;;;;;0.10;0.10;;;14.40;99.90;;;;;;5092422;28;20176;-61
2023/10/20 03:17:52;;;;;;;0.00;0.00;;;14.40;99.90;;;;;;5092497;28;20180;-60
2023/10/20 03:20:24;;;;;;;0.00;0.00;;;14.40;99.90;;;;;;5092434;28;20772;-61
2023/10/20 03:22:51;;;;;;;0.00;0.00;;;14.30;99.90;;;;;;5092238;28;20527;-60
2023/10/20 03:25:17;;;;;;;0.00;0.00;;;14.30;99.90;;;;;;5092314;28;20216;-60
2023/10/20 03:27:44;;;;;;;0.00;0.00;;;14.30;99.90;;;;;;5092063;28;20180;-60
2023/10/20 03:30:09;;;;;;;0.00;0.00;;;14.30;99.90;;;;;;5091863;28;20266;-60
2023/10/20 03:32:35;;;;;;;0.00;0.00;;;14.30;99.90;;;;;;5091566;28;20722;-58
2023/10/20 03:35:01;;;;;;;0.00;0.00;;;14.30;99.90;;;;;;5091196;28;20179;-59
2023/10/20 03:37:27;;;;;;;0.00;0.00;;;14.30;99.90;;;;;;5091272;28;20255;-62
2023/10/20 03:39:53;;;;;;;0.00;0.00;;;14.40;99.90;;;;;;5091806;28;20172;-60
2023/10/20 03:42:19;;;;;;;0.00;0.00;;;14.40;99.90;;;;;;5091471;28;20172;-61
2023/10/20 03:44:47;;;;;;;0.00;0.00;;;14.40;99.90;;;;;;5091425;28;20253;-62
2023/10/20 03:47:14;;;;;;;0.00;0.00;;;14.40;99.90;;;;;;5091875;28;20184;-60
2023/10/20 03:49:39;;;;;;;0.08;0.00;;;14.40;99.90;;;;;;5091973;28;20235;-60
2023/10/20 03:52:11;;;;;;;0.00;0.00;;;14.30;99.90;;;;;;5090717;28;20210;-59
2023/10/20 03:54:38;;;;;;;0.00;0.00;;;14.30;99.90;;;;;;5091990;28;20184;-62
2023/10/20 03:57:04;;;;;;;0.00;0.00;;;14.30;99.90;;;;;;5091837;28;20168;-62
2023/10/20 03:59:30;;;;;;;0.00;0.00;;;14.30;99.90;;;;;;5091985;28;20259;-62
2023/10/20 04:01:56;;;;;;;0.00;0.00;;;14.30;99.90;;;;;;5091389;28;20642;-62
2023/10/20 04:04:22;;;;;;;0.00;0.00;;;14.30;99.90;;;;;;5073634;28;20180;-62
2023/10/20 04:06:49;;;;;;;0.00;0.00;;;14.30;99.90;;;;;;5091707;28;20659;-60
2023/10/20 04:09:17;;;;;;;0.00;0.00;;;14.30;99.90;;;;;;5092856;28;20759;-61
2023/10/20 04:11:43;;;;;;;0.00;0.00;;;14.30;99.90;;;;;;5092547;28;20211;-60
2023/10/20 04:14:09;;;;;;;0.00;0.00;;;14.30;99.90;;;;;;5091905;28;20212;-62
2023/10/20 04:16:39;;;;;;;0.00;0.00;;;14.20;99.90;;;;;;5092266;28;20180;-62
2023/10/20 04:19:09;;;;;;;0.00;0.00;;;14.20;99.90;;;;;;5092705;28;20191;-61
2023/10/20 04:21:35;;;;;;;0.00;0.00;;;14.20;99.90;;;;;;5091927;28;20180;-63
2023/10/20 04:24:01;;;;;;;0.00;0.00;;;14.20;99.90;;;;;;5092229;28;20255;-61
2023/10/20 04:26:30;;;;;;;0.00;0.00;;;14.20;99.90;;;;;;5092415;28;20696;-62
2023/10/20 04:53:22;;;;;;;0.00;0.00;;;13.90;99.90;;;;;;5091281;28;20257;-61
2023/10/20 05:01:49;;;;;;;0.00;0.00;;;13.90;99.90;;;;;;5091318;28;20172;-60
2023/10/20 05:03:53;;;;;;;0.00;0.00;;;13.90;99.90;;;;;;5087169;28;20184;-61
2023/10/20 05:06:22;;;;;;;0.00;0.00;;;13.90;99.90;;;;;;5091337;28;20213;-62
2023/10/20 05:08:49;;;;;;;0.00;0.00;;;13.80;99.90;;;;;;5091268;28;20208;-61
2023/10/20 05:11:15;;;;;;;0.15;0.15;;;13.80;99.90;;;;;;5091212;28;20180;-60
2023/10/20 05:13:41;;;;;;;0.00;0.00;;;13.80;99.90;;;;;;5091439;28;20259;-61
2023/10/20 05:16:09;;;;;;;0.00;0.00;;;13.70;99.90;;;;;;5091161;28;20249;-60
2023/10/20 05:18:36;;;;;;;0.00;0.00;;;13.70;99.90;;;;;;5091278;28;20164;-60
2023/10/20 05:21:11;;;;;;;0.08;0.08;;;13.70;99.90;;;;;;5091233;28;20199;-61
2023/10/20 05:23:37;;;;;;;0.00;0.00;;;13.70;99.90;;;;;;5090936;28;20168;-61
2023/10/20 05:26:03;;;;;;;0.00;0.00;;;13.70;99.90;;;;;;5091159;28;20190;-61
2023/10/20 05:28:30;;;;;;;0.00;0.00;;;13.70;99.90;;;;;;5090919;28;20168;-61
2023/10/20 05:30:57;;;;;;;0.00;0.00;;;13.60;99.90;;;;;;5091250;28;20191;-61
2023/10/20 05:33:23;;;;;;;0.05;0.05;;;13.60;99.90;;;;;;5090877;28;20223;-61
2023/10/20 05:35:49;;;;;;;0.00;0.00;;;13.60;99.90;;;;;;5091078;28;20191;-61
2023/10/20 05:38:14;;;;;;;0.00;0.00;;;13.60;99.90;;;;;;5090727;28;20627;-61
2023/10/20 05:40:40;;;;;;;0.10;0.10;;;13.60;99.90;;;;;;5091080;28;20180;-61
2023/10/20 05:43:05;;;;;;;0.00;0.00;;;13.60;99.90;;;;;;5090892;28;20179;-61
2023/10/20 05:45:41;;;;;;;0.00;0.00;;;13.60;99.90;;;;;;5090915;28;20172;-61
2023/10/20 05:48:07;;;;;;;0.00;0.00;;;13.60;99.90;;;;;;5090891;28;20229;-61
2023/10/20 05:50:37;;;;;;;0.13;0.13;;;13.60;99.90;;;;;;5090865;28;20421;-60
2023/10/20 05:53:03;;;;;;;0.00;0.00;;;13.60;99.90;;;;;;5090984;28;20639;-60
2023/10/20 05:55:29;;;;;;;0.05;0.05;;;13.60;99.90;;;;;;5090812;28;20190;-60
2023/10/20 05:57:54;;;;;;;0.00;0.00;;;13.60;99.90;;;;;;5091006;28;20173;-60
2023/10/20 06:00:20;;;;;;;0.00;0.00;;;13.60;99.90;;;;;;5090890;28;20183;-60
2023/10/20 06:02:46;;;;;;;0.20;0.20;;;13.60;99.90;;;;;;5090759;28;20195;-59
2023/10/20 06:05:13;;;;;;;0.00;0.00;;;13.60;99.90;;;;;;5092669;28;20251;-60
2023/10/20 06:07:40;;;;;;;0.17;0.17;;;13.60;99.90;;;;;;5094452;28;20169;-61
2023/10/20 06:10:08;;;;;;;0.00;0.00;;;13.50;99.90;;;;;;5094306;28;20199;-61
2023/10/20 06:12:34;;;;;;;0.10;0.10;;;13.50;99.90;;;;;;5094405;28;20222;-60
2023/10/20 06:14:59;;;;;;;0.00;0.00;;;13.50;99.90;;;;;;5094379;28;20536;-60
2023/10/20 06:17:25;;;;;;;0.00;0.00;;;13.50;99.90;;;;;;5094092;28;20207;-61
2023/10/20 06:19:50;;;;;;;0.32;0.32;;;13.50;99.90;;;;;;5094295;28;20178;-60
2023/10/20 06:22:16;;;;;;;0.00;0.00;;;13.50;99.90;;;;;;5094187;28;20175;-60
2023/10/20 06:24:43;;;;;;;0.00;0.00;;;13.50;99.90;;;;;;5093972;28;20175;-60
2023/10/20 06:27:09;;;;;;;0.08;0.03;;;13.50;99.90;;;;;;5094002;28;20165;-61
2023/10/20 06:29:48;;;;;;;0.00;0.00;;;13.50;99.90;;;;;;5093912;28;20204;-60
2023/10/20 06:32:25;;;;;;;0.10;0.10;;;13.50;99.90;;;;;;5093886;28;20219;-60
2023/10/20 06:34:53;;;;;;;0.00;0.00;;;13.50;99.90;;;;;;5094109;28;20182;-60
2023/10/20 06:37:30;;;;;;;0.00;0.00;;;13.50;99.90;;;;;;5093748;28;20635;-61
2023/10/20 06:39:56;;;;;;;0.00;0.00;;;13.50;99.90;;;;;;5093988;28;20197;-60
2023/10/20 06:42:22;;;;;;;0.00;0.00;;;13.50;99.90;;;;;;5093753;28;20676;-60
2023/10/20 06:44:48;;;;;;;0.00;0.00;;;13.50;99.90;;;;;;5093702;28;20187;-60
2023/10/20 06:47:13;;;;;;;0.00;0.00;;;13.50;99.90;;;;;;5093636;28;20172;-60
2023/10/20 06:49:39;;;;;;;0.00;0.00;;;13.50;99.90;;;;;;5093507;28;20208;-61
2023/10/20 06:52:05;;;;;;;0.10;0.10;;;13.50;99.90;;;;;;5093656;28;20643;-61
2023/10/20 06:54:31;;;;;;;0.00;0.00;;;13.60;99.90;;;;;;5093573;28;20570;-61
2023/10/20 06:56:56;;;;;;;0.00;0.00;;;13.60;99.90;;;;;;5093493;28;20175;-61
2023/10/20 06:59:22;;;;;;;0.00;0.00;;;13.60;99.90;;;;;;5093372;28;20631;-60
2023/10/20 07:01:47;;;;;;;0.00;0.00;;;13.60;99.90;;;;;;5093264;28;20172;-60
2023/10/20 07:04:13;;;;;;;0.00;0.00;;;13.70;99.90;;;;;;5092173;28;20223;-60
2023/10/20 07:06:40;;;;;;;0.00;0.00;;;13.70;99.90;;;;;;5093283;28;20255;-60
2023/10/20 07:09:12;;;;;;;0.00;0.00;;;13.70;99.90;;;;;;5092959;28;20219;-60
2023/10/20 07:11:42;;;;;;;0.10;0.10;;;13.70;99.90;;;;;;5093188;28;20305;-60
2023/10/20 07:14:08;;;;;;;0.00;0.00;;;13.70;99.90;;;;;;5093117;28;20180;-60
2023/10/20 07:16:33;;;;;;;0.00;0.00;;;13.80;99.90;;;;;;5092786;28;20277;-60
2023/10/20 07:19:03;;;;;;;0.00;0.00;;;13.80;99.90;;;;;;5093116;28;20199;-60
2023/10/20 07:21:30;;;;;;;0.00;0.00;;;13.80;99.90;;;;;;5092782;28;20229;-59
2023/10/20 07:23:55;;;;;;;0.00;0.00;;;13.80;99.90;;;;;;5093037;28;20184;-60
2023/10/20 07:26:21;;;;;;;0.00;0.00;;;13.80;99.90;;;;;;5092895;28;20541;-61
2023/10/20 07:28:47;;;;;;;0.00;0.00;;;13.90;99.90;;;;;;5092695;28;20235;-60
2023/10/20 07:31:17;;;;;;;0.00;0.00;;;13.90;99.90;;;;;;5092821;28;20222;-60
2023/10/20 07:33:42;;;;;;;0.00;0.00;;;13.90;99.90;;;;;;5092604;28;20315;-60
2023/10/20 07:36:08;;;;;;;0.00;0.00;;;14.00;99.90;;;;;;5092655;28;20574;-60
2023/10/20 07:38:34;;;;;;;0.10;0.10;;;14.00;99.90;;;;;;5125529;27;20168;-61
2023/10/20 07:41:06;;;;;;;0.00;0.00;;;14.00;99.90;;;;;;5092767;28;20542;-60
2023/10/20 07:43:31;;;;;;;0.00;0.00;;;14.00;99.90;;;;;;5092495;28;20573;-60
2023/10/20 07:45:57;;;;;;;0.00;0.00;;;14.00;99.90;;;;;;5092559;28;20180;-61
2023/10/20 07:48:23;;;;;;;0.00;0.00;;;14.00;99.90;;;;;;5092415;28;20528;-61
2023/10/20 07:50:49;;;;;;;0.00;0.00;;;14.00;99.90;;;;;;5092374;28;20176;-61
2023/10/20 07:53:14;;;;;;;0.13;0.13;;;14.10;99.90;;;;;;5092545;28;20168;-61
2023/10/20 07:55:40;;;;;;;0.00;0.00;;;14.00;99.90;;;;;;5092258;28;20179;-61
2023/10/20 07:58:08;;;;;;;0.00;0.00;;;14.10;99.90;;;;;;5092326;28;20180;-61
2023/10/20 08:00:34;;;;;;;0.00;0.00;;;14.00;99.90;;;;;;5092334;28;20160;-61
2023/10/20 08:03:00;;;;;;;0.00;0.00;;;14.10;99.90;;;;;;5092350;28;20839;-61
2023/10/20 08:05:26;;;;;;;0.10;0.10;;;14.10;99.90;;;;;;5092009;28;20210;-61
2023/10/20 08:07:51;;;;;;;0.00;0.00;;;14.10;99.90;;;;;;5091981;28;20172;-61
2023/10/20 08:10:17;;;;;;;0.00;0.00;;;14.20;99.90;;;;;;5092130;28;20318;-61
2023/10/20 08:12:43;;;;;;;0.00;0.00;;;14.20;99.90;;;;;;5092080;28;20174;-61
2023/10/20 08:15:08;;;;;;;0.00;0.00;;;14.30;99.90;;;;;;5091997;28;20249;-61
2023/10/20 08:17:34;;;;;;;0.00;0.00;;;14.40;99.90;;;;;;5091949;28;20176;-61
2023/10/20 08:19:59;;;;;;;0.00;0.00;;;14.40;99.90;;;;;;5091985;28;20179;-61
2023/10/20 08:22:25;;;;;;;0.00;0.00;;;14.40;99.90;;;;;;5091878;28;20172;-61
2023/10/20 08:24:51;;;;;;;0.00;0.00;;;14.50;99.90;;;;;;5091918;28;20181;-61
2023/10/20 08:27:18;;;;;;;0.00;0.00;;;14.50;99.90;;;;;;5090018;28;20255;-61
2023/10/20 08:29:48;;;;;;;0.00;0.00;;;14.50;99.90;;;;;;5091719;28;20564;-61
2023/10/20 08:32:13;;;;;;;0.00;0.00;;;14.60;99.90;;;;;;5091583;28;20326;-61
2023/10/20 08:34:39;;;;;;;0.00;0.00;;;14.60;99.90;;;;;;5091701;28;20258;-61
2023/10/20 08:37:04;;;;;;;0.00;0.00;;;14.70;99.90;;;;;;5091743;28;20169;-61
2023/10/20 08:39:30;;;;;;;0.00;0.00;;;14.60;99.90;;;;;;5090534;28;20230;-60
2023/10/20 08:41:58;;;;;;;0.00;0.00;;;14.60;99.90;;;;;;5091883;28;20191;-61
2023/10/20 08:44:25;;;;;;;0.00;0.00;;;14.60;99.90;;;;;;5091619;28;20969;-61
2023/10/20 08:46:51;;;;;;;0.00;0.00;;;14.60;99.90;;;;;;5091583;28;20659;-61
2023/10/20 08:49:18;;;;;;;0.00;0.00;;;14.60;99.90;;;;;;5091357;28;20227;-62
2023/10/20 08:51:46;;;;;;;0.00;0.00;;;14.60;99.90;;;;;;5091544;28;20183;-61
2023/10/20 08:54:13;;;;;;;0.10;0.10;;;14.70;99.90;;;;;;5091637;28;20199;-61
2023/10/20 08:56:40;;;;;;;0.00;0.00;;;14.70;99.90;;;;;;5091517;28;20180;-61
2023/10/20 08:59:06;;;;;;;0.05;0.05;;;14.70;99.90;;;;;;5091455;28;20184;-61
2023/10/20 09:01:31;;;;;;;0.00;0.00;;;14.60;99.90;;;;;;5091441;28;20696;-60
2023/10/20 09:03:59;;;;;;;0.00;0.00;;;14.60;99.90;;;;;;5091435;28;20184;-60
2023/10/20 09:06:26;;;;;;;0.00;0.00;;;14.60;99.90;;;;;;5091396;28;20666;-61
2023/10/20 09:08:51;;;;;;;0.00;0.00;;;14.70;99.90;;;;;;5091329;28;20199;-60
2023/10/20 09:11:30;;;;;;;0.00;0.00;;;14.70;99.90;;;;;;5091400;28;20176;-62
2023/10/20 09:13:57;;;;;;;0.10;0.10;;;14.80;99.90;;;;;;5091459;28;20192;-61
2023/10/20 09:16:23;;;;;;;0.00;0.00;;;14.90;99.90;;;;;;5091228;28;20828;-61
2023/10/20 09:18:53;;;;;;;0.20;0.20;;;15.00;99.90;;;;;;5091253;28;20208;-61
2023/10/20 09:21:28;;;;;;;0.00;0.00;;;15.10;99.90;;;;;;5091400;28;20230;-62
2023/10/20 09:23:55;;;;;;;0.10;0.10;;;15.20;99.90;;;;;;5089971;28;20175;-61
2023/10/20 09:26:21;;;;;;;0.00;0.00;;;15.30;99.90;;;;;;5091218;28;20183;-61
2023/10/20 09:28:49;;;;;;;0.00;0.00;;;15.40;99.90;;;;;;5091068;28;20199;-62
2023/10/20 09:31:18;;;;;;;0.00;0.00;;;15.60;99.90;;;;;;5091231;28;20188;-61
2023/10/20 09:33:44;;;;;;;0.00;0.00;;;15.70;99.90;;;;;;5090959;28;20228;-61
2023/10/20 09:36:13;;;;;;;0.00;0.00;;;15.80;99.90;;;;;;5089920;28;20313;-62
2023/10/20 09:38:39;;;;;;;0.08;0.08;;;16.00;99.90;;;;;;5092183;28;20693;-61
2023/10/20 09:41:13;;;;;;;0.10;0.10;;;16.00;99.90;;;;;;5094893;28;20176;-61
2023/10/20 09:43:53;;;;;;;0.10;0.10;;;16.20;99.90;;;;;;5095061;28;20198;-61
2023/10/20 09:46:52;;;;;;;0.00;0.00;;;16.30;99.90;;;;;;5094989;28;20250;-62
2023/10/20 09:49:24;;;;;;;0.00;0.00;;;16.60;99.90;;;;;;5094627;28;20786;-62
2023/10/20 09:51:50;;;;;;;0.00;0.00;;;16.70;99.90;;;;;;5093587;28;20668;-61
2023/10/20 09:54:18;;;;;;;0.05;0.05;;;16.80;99.90;;;;;;5094780;28;20198;-61
2023/10/20 09:56:45;;;;;;;0.10;0.10;;;16.80;99.90;;;;;;5094768;28;20222;-61
2023/10/20 09:59:20;;;;;;;0.00;0.00;;;17.00;99.90;;;;;;5094888;28;20172;-61
2023/10/20 10:01:46;;;;;;;0.00;0.00;;;17.10;99.90;;;;;;5094627;28;20175;-61
2023/10/20 10:04:11;;;;;;;0.00;0.00;;;17.20;99.90;;;;;;5094625;28;20168;-61
2023/10/20 10:06:38;;;;;;;0.00;0.00;;;17.30;99.90;;;;;;5094458;28;20176;-61
2023/10/20 10:09:05;;;;;;;0.35;0.35;;;17.30;99.90;;;;;;5094476;28;20575;-61
2023/10/20 10:11:37;;;;;;;0.00;0.00;;;17.30;99.90;;;;;;5094401;28;20207;-61
2023/10/20 10:14:04;;;;;;;0.00;0.00;;;17.30;99.90;;;;;;5094565;28;20172;-61
2023/10/20 10:16:30;;;;;;;0.00;0.00;;;17.30;99.90;;;;;;5094315;28;20644;-61
2023/10/20 10:19:09;;;;;;;0.00;0.00;;;17.40;99.90;;;;;;5094379;28;20168;-61
2023/10/20 10:21:39;;;;;;;0.00;0.00;;;17.50;99.90;;;;;;5094278;28;20184;-61
2023/10/20 10:24:16;;;;;;;0.00;0.00;;;17.60;99.90;;;;;;5094444;28;20164;-62
2023/10/20 10:26:51;;;;;;;0.00;0.00;;;17.70;99.90;;;;;;5094297;28;20175;-61
2023/10/20 10:29:41;;;;;;;0.00;0.00;;;17.80;99.90;;;;;;5094122;28;20294;-63
2023/10/20 10:32:13;;;;;;;0.00;0.00;;;17.90;99.90;;;;;;5093770;28;20252;-61
2023/10/20 10:34:42;;;;;;;0.00;0.00;;;18.10;99.90;;;;;;5094044;28;20180;-61
2023/10/20 10:37:08;;;;;;;0.10;0.10;;;18.20;99.90;;;;;;5093919;28;20172;-60
2023/10/20 10:39:34;;;;;;;0.00;0.00;;;18.30;99.90;;;;;;5094004;28;20199;-62
2023/10/20 10:42:04;;;;;;;0.00;0.00;;;18.40;99.90;;;;;;5092736;28;20172;-61
2023/10/20 10:44:34;;;;;;;0.00;0.00;;;18.40;99.90;;;;;;5093812;28;20176;-61
2023/10/20 10:47:00;;;;;;;0.00;0.00;;;18.50;99.90;;;;;;5093969;28;20164;-61
2023/10/20 10:49:26;;;;;;;0.00;0.00;;;18.50;99.90;;;;;;5093901;28;20613;-61
2023/10/20 10:51:52;;;;;;;0.00;0.00;;;18.50;99.90;;;;;;5093191;28;20204;-61
2023/10/20 10:54:18;;;;;;;0.00;0.00;;;18.50;99.90;;;;;;5092427;28;20176;-61
2023/10/20 10:56:44;;;;;;;0.00;0.00;;;18.40;99.90;;;;;;5093635;28;20184;-61
2023/10/20 10:59:11;;;;;;;0.00;0.00;;;18.40;99.90;;;;;;5093730;28;20172;-61
2023/10/20 11:01:39;;;;;;;0.00;0.00;;;18.20;99.90;;;;;;5093542;28;20238;-61
2023/10/20 11:04:07;;;;;;;0.00;0.00;;;18.00;99.90;;;;;;5093592;28;20718;-61
2023/10/20 11:06:36;;;;;;;0.00;0.00;;;18.00;99.90;;;;;;5093398;28;20188;-61
2023/10/20 11:09:05;;;;;;;0.00;0.00;;;18.00;99.90;;;;;;5093433;28;20227;-61
2023/10/20 11:11:31;;;;;;;0.00;0.00;;;18.00;99.90;;;;;;5093321;28;20172;-61
2023/10/20 11:13:57;;;;;;;0.00;0.00;;;18.00;99.90;;;;;;5093523;28;20168;-61
2023/10/20 11:16:23;;;;;;;0.00;0.00;;;18.00;99.90;;;;;;5093140;28;20207;-61
2023/10/20 11:18:49;;;;;;;0.00;0.00;;;17.90;99.90;;;;;;5093149;28;20199;-60
2023/10/20 11:21:15;;;;;;;0.00;0.00;;;17.80;99.90;;;;;;5093150;28;20603;-60
2023/10/20 11:23:49;;;;;;;0.00;0.00;;;17.70;99.90;;;;;;5093048;28;20263;-61
2023/10/20 11:26:18;;;;;;;0.00;0.00;;;17.60;99.90;;;;;;5093165;28;20237;-62
2023/10/20 11:28:44;;;;;;;0.00;0.00;;;17.50;99.90;;;;;;5092803;28;20183;-61
2023/10/20 11:31:11;;;;;;;0.00;0.00;;;17.40;99.90;;;;;;5092859;28;20247;-61
2023/10/20 11:33:37;;;;;;;0.00;0.00;;;17.40;99.90;;;;;;5092673;28;20713;-61
2023/10/20 11:36:04;;;;;;;0.00;0.00;;;17.30;99.90;;;;;;5092902;28;20180;-61
2023/10/20 11:38:32;;;;;;;0.00;0.00;;;17.30;99.90;;;;;;5092731;28;20610;-61
2023/10/20 11:40:58;;;;;;;0.00;0.00;;;17.30;99.90;;;;;;5092861;28;20180;-61
2023/10/20 11:43:23;;;;;;;0.00;0.00;;;17.30;99.90;;;;;;5092663;28;20203;-61
2023/10/20 11:45:49;;;;;;;0.00;0.00;;;17.40;99.90;;;;;;5092524;28;20215;-62
2023/10/20 11:48:14;;;;;;;0.00;0.00;;;17.40;99.90;;;;;;5092940;28;20281;-61
2023/10/20 11:50:40;;;;;;;0.00;0.00;;;17.50;99.90;;;;;;5092427;28;20219;-61
2023/10/20 11:53:05;;;;;;;0.00;0.00;;;17.50;99.90;;;;;;5092425;28;20172;-61
2023/10/20 11:55:32;;;;;;;0.00;0.00;;;17.50;99.90;;;;;;5091153;28;20232;-62
2023/10/20 11:57:57;;;;;;;0.00;0.00;;;17.50;99.90;;;;;;5092511;28;20167;-62
2023/10/20 12:00:23;;;;;;;0.00;0.00;;;17.60;99.90;;;;;;5092363;28;20643;-62
2023/10/20 12:02:49;;;;;;;0.00;0.00;;;17.70;99.90;;;;;;5091356;28;20168;-61
2023/10/20 12:05:14;;;;;;;0.00;0.00;;;17.70;99.90;;;;;;5092605;28;20568;-62
2023/10/20 12:07:40;;;;;;;0.00;0.00;;;17.80;99.90;;;;;;5092192;28;20654;-62
2023/10/20 12:10:06;;;;;;;0.00;0.00;;;17.90;99.90;;;;;;5092040;28;20208;-61
2023/10/20 12:12:33;;;;;;;0.00;0.00;;;18.00;99.90;;;;;;5092048;28;20215;-62
2023/10/20 12:15:00;;;;;;;0.00;0.00;;;18.10;99.90;;;;;;5090977;28;20220;-62
2023/10/20 12:17:25;;;;;;;0.00;0.00;;;18.30;99.90;;;;;;5092047;28;20184;-61
2023/10/20 12:19:51;;;;;;;0.00;0.00;;;18.40;99.90;;;;;;5092037;28;20172;-60
2023/10/20 12:22:17;;;;;;;0.00;0.00;;;18.60;99.90;;;;;;5092057;28;20614;-61
2023/10/20 12:24:43;;;;;;;0.00;0.00;;;18.70;99.90;;;;;;5091914;28;20576;-62
2023/10/20 12:27:09;;;;;;;0.00;0.00;;;18.80;99.90;;;;;;5091844;28;20297;-61
2023/10/20 12:29:35;;;;;;;0.00;0.00;;;18.90;99.90;;;;;;5091726;28;20250;-61
2023/10/20 12:32:02;;;;;;;0.00;0.00;;;19.10;99.90;;;;;;5091645;28;20856;-61
2023/10/20 12:34:28;;;;;;;0.00;0.00;;;19.30;99.90;;;;;;5091835;28;20168;-62
2023/10/20 12:36:54;;;;;;;0.00;0.00;;;19.40;99.90;;;;;;5090403;28;20635;-61
2023/10/20 12:39:20;;;;;;;0.00;0.00;;;19.60;99.90;;;;;;5091655;28;20172;-62
2023/10/20 12:41:46;;;;;;;0.00;0.00;;;19.90;99.90;;;;;;5124313;27;20180;-62
2023/10/20 12:44:12;;;;;;;0.00;0.00;;;20.00;99.90;;;;;;5091737;28;20259;-61
2023/10/20 12:46:38;;;;;;;0.00;0.00;;;20.20;99.90;;;;;;5091565;28;20290;-62
2023/10/20 12:49:06;;;;;;;0.00;0.00;;;20.20;99.90;;;;;;5091518;28;20640;-61
2023/10/20 12:51:33;;;;;;;0.00;0.00;;;20.20;99.90;;;;;;5091503;28;20264;-62
2023/10/20 12:53:59;;;;;;;0.20;0.20;;;20.20;99.90;;;;;;5091551;28;20263;-62
2023/10/20 12:56:26;;;;;;;0.00;0.00;;;20.20;99.90;;;;;;5091492;28;20266;-62
2023/10/20 12:58:51;;;;;;;0.00;0.00;;;20.20;99.90;;;;;;5091523;28;20168;-62
2023/10/20 13:01:17;;;;;;;0.00;0.00;;;20.20;99.90;;;;;;5090031;28;20172;-62
2023/10/20 13:03:42;;;;;;;0.00;0.00;;;20.20;99.90;;;;;;5091265;28;20172;-62
2023/10/20 13:06:08;;;;;;;0.00;0.00;;;20.20;99.90;;;;;;5091136;28;20181;-61
2023/10/20 13:08:33;;;;;;;0.00;0.00;;;20.20;99.90;;;;;;5091208;28;20172;-61
2023/10/20 13:10:59;;;;;;;0.00;0.00;;;20.10;99.90;;;;;;5124075;28;20191;-61
2023/10/20 13:13:25;;;;;;;0.00;0.00;;;20.00;99.90;;;;;;5091939;28;20214;-61
2023/10/20 13:15:50;;;;;;;0.00;0.00;;;19.80;99.90;;;;;;5095575;28;20225;-61
2023/10/20 13:18:16;;;;;;;0.00;0.00;;;19.70;99.90;;;;;;5095371;28;20176;-61